Adell, Wisconsin
Current Conditions -  °F | °C
As of 2:10 AM on Saturday 25 Oct 2014 (Local Time) from KSBM Reporting Station
Broken Clouds Broken Clouds  
Wind Chill: 53°   Ceiling: 1100
Heat Index: 53°   Visibility: 8mi
Dew Point: 50°   Wind: 7mph
Humidity: 89%   Direction: 260°W
Pressure: 29.84"   Gusts: NA
Location:  43.62°N, 87.95°W
Report Text: KSBM 250710Z AUTO 26006KT 8SM BKN011 12/10 A2984 RMK AO2 CIG 010V013 T01170100
Loading
Personal Weather Stations






























Interactive Weather Map
Tropical Storm Tracking
New forecast layout! Learn more

10-Day Weather Forecast

Advertisements
Track Severe Weather on mobile